sensor_id;sensor_type;location;lat;lon;timestamp;temperature;humidity
11619;DHT22;5865;48.776;9.280;2024-03-22T00:02:58;5.60;99.90
11619;DHT22;5865;48.776;9.280;2024-03-22T00:05:27;5.60;99.90
11619;DHT22;5865;48.776;9.280;2024-03-22T00:15:13;5.70;99.90
11619;DHT22;5865;48.776;9.280;2024-03-22T00:17:39;5.70;99.90
11619;DHT22;5865;48.776;9.280;2024-03-22T00:20:07;5.60;99.90
11619;DHT22;5865;48.776;9.280;2024-03-22T00:22:34;5.60;99.90
11619;DHT22;5865;48.776;9.280;2024-03-22T00:39:42;5.10;99.90
11619;DHT22;5865;48.776;9.280;2024-03-22T00:44:35;5.20;99.90
11619;DHT22;5865;48.776;9.280;2024-03-22T00:47:01;5.40;99.90
11619;DHT22;5865;48.776;9.280;2024-03-22T00:49:29;5.30;99.90
11619;DHT22;5865;48.776;9.280;2024-03-22T00:54:22;5.20;99.90
11619;DHT22;5865;48.776;9.280;2024-03-22T00:56:49;5.20;99.90
11619;DHT22;5865;48.776;9.280;2024-03-22T00:59:16;5.10;99.90
11619;DHT22;5865;48.776;9.280;2024-03-22T01:04:09;5.00;99.90
11619;DHT22;5865;48.776;9.280;2024-03-22T01:11:29;4.90;99.90
11619;DHT22;5865;48.776;9.280;2024-03-22T01:13:57;4.60;99.90
11619;DHT22;5865;48.776;9.280;2024-03-22T01:16:23;4.30;99.90
11619;DHT22;5865;48.776;9.280;2024-03-22T01:18:50;4.50;99.90
11619;DHT22;5865;48.776;9.280;2024-03-22T01:28:36;4.80;99.90
11619;DHT22;5865;48.776;9.280;2024-03-22T01:31:04;4.70;99.90
11619;DHT22;5865;48.776;9.280;2024-03-22T01:48:12;4.50;99.90
11619;DHT22;5865;48.776;9.280;2024-03-22T01:57:59;4.50;99.90
11619;DHT22;5865;48.776;9.280;2024-03-22T02:00:26;4.50;99.90
11619;DHT22;5865;48.776;9.280;2024-03-22T02:05:21;4.70;99.90
11619;DHT22;5865;48.776;9.280;2024-03-22T02:10:16;4.60;99.90
11619;DHT22;5865;48.776;9.280;2024-03-22T02:15:10;4.60;99.90
11619;DHT22;5865;48.776;9.280;2024-03-22T02:17:35;4.40;99.90
11619;DHT22;5865;48.776;9.280;2024-03-22T02:20:03;4.40;99.90
11619;DHT22;5865;48.776;9.280;2024-03-22T02:22:31;4.40;99.90
11619;DHT22;5865;48.776;9.280;2024-03-22T02:24:59;4.50;99.90
11619;DHT22;5865;48.776;9.280;2024-03-22T02:42:07;4.20;99.90
11619;DHT22;5865;48.776;9.280;2024-03-22T02:44:34;4.50;99.90
11619;DHT22;5865;48.776;9.280;2024-03-22T02:56:50;4.30;99.90
11619;DHT22;5865;48.776;9.280;2024-03-22T02:59:19;4.30;99.90
11619;DHT22;5865;48.776;9.280;2024-03-22T03:01:44;4.10;99.90
11619;DHT22;5865;48.776;9.280;2024-03-22T03:11:33;4.10;99.90
11619;DHT22;5865;48.776;9.280;2024-03-22T03:33:36;4.90;99.90
11619;DHT22;5865;48.776;9.280;2024-03-22T03:38:29;4.70;99.90
11619;DHT22;5865;48.776;9.280;2024-03-22T03:40:55;4.60;99.90
11619;DHT22;5865;48.776;9.280;2024-03-22T03:50:51;4.40;99.90
11619;DHT22;5865;48.776;9.280;2024-03-22T04:08:00;5.00;99.90
11619;DHT22;5865;48.776;9.280;2024-03-22T04:12:53;4.70;99.90
11619;DHT22;5865;48.776;9.280;2024-03-22T04:15:19;4.60;99.90
11619;DHT22;5865;48.776;9.280;2024-03-22T04:25:07;4.80;99.90
11619;DHT22;5865;48.776;9.280;2024-03-22T04:27:36;4.70;99.90
11619;DHT22;5865;48.776;9.280;2024-03-22T04:37:22;4.90;99.90
11619;DHT22;5865;48.776;9.280;2024-03-22T04:42:18;5.00;99.90
11619;DHT22;5865;48.776;9.280;2024-03-22T04:44:45;5.20;99.90
11619;DHT22;5865;48.776;9.280;2024-03-22T04:52:05;5.40;99.90
11619;DHT22;5865;48.776;9.280;2024-03-22T04:59:27;5.50;99.90
11619;DHT22;5865;48.776;9.280;2024-03-22T05:04:20;5.70;99.90
11619;DHT22;5865;48.776;9.280;2024-03-22T05:16:34;5.90;99.90
11619;DHT22;5865;48.776;9.280;2024-03-22T05:26:21;5.90;99.90
11619;DHT22;5865;48.776;9.280;2024-03-22T05:28:48;6.10;99.90
11619;DHT22;5865;48.776;9.280;2024-03-22T05:33:43;6.00;99.90
11619;DHT22;5865;48.776;9.280;2024-03-22T05:41:04;6.40;99.90
11619;DHT22;5865;48.776;9.280;2024-03-22T05:50:52;6.40;99.90
11619;DHT22;5865;48.776;9.280;2024-03-22T05:55:45;6.80;99.90
11619;DHT22;5865;48.776;9.280;2024-03-22T05:58:12;6.70;99.90
11619;DHT22;5865;48.776;9.280;2024-03-22T06:00:39;6.60;99.90
11619;DHT22;5865;48.776;9.280;2024-03-22T06:05:33;6.50;99.90
11619;DHT22;5865;48.776;9.280;2024-03-22T06:08:01;6.50;99.90
11619;DHT22;5865;48.776;9.280;2024-03-22T06:15:22;6.60;99.90
11619;DHT22;5865;48.776;9.280;2024-03-22T06:25:12;6.30;99.90
11619;DHT22;5865;48.776;9.280;2024-03-22T06:27:39;6.80;99.90
11619;DHT22;5865;48.776;9.280;2024-03-22T06:30:06;6.90;99.90
11619;DHT22;5865;48.776;9.280;2024-03-22T06:39:52;7.10;99.90
11619;DHT22;5865;48.776;9.280;2024-03-22T06:59:29;8.10;99.90
11619;DHT22;5865;48.776;9.280;2024-03-22T07:11:43;8.60;99.90
11619;DHT22;5865;48.776;9.280;2024-03-22T07:51:01;10.70;99.90
11619;DHT22;5865;48.776;9.280;2024-03-22T08:03:15;11.50;99.90
11619;DHT22;5865;48.776;9.280;2024-03-22T08:15:32;12.50;99.90
11619;DHT22;5865;48.776;9.280;2024-03-22T08:22:51;13.00;99.90
11619;DHT22;5865;48.776;9.280;2024-03-22T08:47:25;14.00;99.90
11619;DHT22;5865;48.776;9.280;2024-03-22T09:04:34;14.50;99.90
11619;DHT22;5865;48.776;9.280;2024-03-22T09:07:00;14.50;99.90
11619;DHT22;5865;48.776;9.280;2024-03-22T09:11:54;14.60;99.90
11619;DHT22;5865;48.776;9.280;2024-03-22T09:14:20;14.90;99.90
11619;DHT22;5865;48.776;9.280;2024-03-22T09:19:16;15.00;99.90
11619;DHT22;5865;48.776;9.280;2024-03-22T09:24:09;15.10;99.90
11619;DHT22;5865;48.776;9.280;2024-03-22T09:26:35;15.00;99.90
11619;DHT22;5865;48.776;9.280;2024-03-22T09:33:59;16.10;99.90
11619;DHT22;5865;48.776;9.280;2024-03-22T09:36:25;16.10;99.90
11619;DHT22;5865;48.776;9.280;2024-03-22T09:41:24;16.80;99.90
11619;DHT22;5865;48.776;9.280;2024-03-22T14:18:10;23.70;66.80
11619;DHT22;5865;48.776;9.280;2024-03-22T14:20:37;22.30;69.50
11619;DHT22;5865;48.776;9.280;2024-03-22T14:23:03;21.30;73.70
11619;DHT22;5865;48.776;9.280;2024-03-22T14:25:32;20.80;76.10
11619;DHT22;5865;48.776;9.280;2024-03-22T14:27:58;20.60;76.50
11619;DHT22;5865;48.776;9.280;2024-03-22T14:30:25;20.40;79.20
11619;DHT22;5865;48.776;9.280;2024-03-22T14:32:51;19.70;78.90
11619;DHT22;5865;48.776;9.280;2024-03-22T14:37:47;19.50;79.90
11619;DHT22;5865;48.776;9.280;2024-03-22T14:40:14;19.70;80.40
11619;DHT22;5865;48.776;9.280;2024-03-22T14:42:42;19.60;80.20
11619;DHT22;5865;48.776;9.280;2024-03-22T14:45:09;19.80;80.40
11619;DHT22;5865;48.776;9.280;2024-03-22T14:47:36;19.20;81.40
11619;DHT22;5865;48.776;9.280;2024-03-22T14:50:03;19.30;82.10
11619;DHT22;5865;48.776;9.280;2024-03-22T14:52:31;19.30;84.30
11619;DHT22;5865;48.776;9.280;2024-03-22T14:57:24;19.10;86.10
11619;DHT22;5865;48.776;9.280;2024-03-22T14:59:50;19.00;85.40
11619;DHT22;5865;48.776;9.280;2024-03-22T15:02:18;19.00;86.30
11619;DHT22;5865;48.776;9.280;2024-03-22T15:04:44;19.10;86.30
11619;DHT22;5865;48.776;9.280;2024-03-22T15:07:11;19.20;82.20
11619;DHT22;5865;48.776;9.280;2024-03-22T15:09:38;19.30;81.00
11619;DHT22;5865;48.776;9.280;2024-03-22T15:12:06;19.50;76.40
11619;DHT22;5865;48.776;9.280;2024-03-22T15:14:34;19.40;76.80
11619;DHT22;5865;48.776;9.280;2024-03-22T15:17:01;19.20;74.60
11619;DHT22;5865;48.776;9.280;2024-03-22T15:19:27;19.20;75.40
11619;DHT22;5865;48.776;9.280;2024-03-22T15:21:54;18.80;73.60
11619;DHT22;5865;48.776;9.280;2024-03-22T15:26:48;18.60;74.60
11619;DHT22;5865;48.776;9.280;2024-03-22T15:29:14;18.70;73.80
11619;DHT22;5865;48.776;9.280;2024-03-22T15:31:41;18.60;73.70
11619;DHT22;5865;48.776;9.280;2024-03-22T15:34:07;18.80;73.30
11619;DHT22;5865;48.776;9.280;2024-03-22T15:36:34;18.70;72.80
11619;DHT22;5865;48.776;9.280;2024-03-22T15:39:00;18.60;75.10
11619;DHT22;5865;48.776;9.280;2024-03-22T15:41:30;18.30;76.30
11619;DHT22;5865;48.776;9.280;2024-03-22T15:43:58;18.10;73.30
11619;DHT22;5865;48.776;9.280;2024-03-22T15:46:24;17.80;73.70
11619;DHT22;5865;48.776;9.280;2024-03-22T15:48:50;17.90;75.40
11619;DHT22;5865;48.776;9.280;2024-03-22T15:51:18;17.90;75.10
11619;DHT22;5865;48.776;9.280;2024-03-22T15:53:44;17.80;75.30
11619;DHT22;5865;48.776;9.280;2024-03-22T15:56:11;17.80;74.30
11619;DHT22;5865;48.776;9.280;2024-03-22T15:58:37;17.90;75.40
11619;DHT22;5865;48.776;9.280;2024-03-22T16:01:05;17.50;76.30
11619;DHT22;5865;48.776;9.280;2024-03-22T16:03:31;17.50;76.90
11619;DHT22;5865;48.776;9.280;2024-03-22T16:05:58;17.50;78.50
11619;DHT22;5865;48.776;9.280;2024-03-22T16:08:24;17.50;78.60
11619;DHT22;5865;48.776;9.280;2024-03-22T16:10:51;17.40;78.80
11619;DHT22;5865;48.776;9.280;2024-03-22T16:15:45;17.20;79.50
11619;DHT22;5865;48.776;9.280;2024-03-22T16:18:12;17.20;80.50
11619;DHT22;5865;48.776;9.280;2024-03-22T16:20:39;17.10;81.00
11619;DHT22;5865;48.776;9.280;2024-03-22T16:23:05;17.00;81.30
11619;DHT22;5865;48.776;9.280;2024-03-22T16:25:34;16.80;83.50
11619;DHT22;5865;48.776;9.280;2024-03-22T16:28:00;16.80;84.20
11619;DHT22;5865;48.776;9.280;2024-03-22T16:30:27;16.70;84.80
11619;DHT22;5865;48.776;9.280;2024-03-22T16:32:53;16.80;84.00
11619;DHT22;5865;48.776;9.280;2024-03-22T16:35:21;16.80;84.10
11619;DHT22;5865;48.776;9.280;2024-03-22T16:37:48;16.80;84.00
11619;DHT22;5865;48.776;9.280;2024-03-22T16:40:16;16.80;85.40
11619;DHT22;5865;48.776;9.280;2024-03-22T16:42:45;16.90;85.80
11619;DHT22;5865;48.776;9.280;2024-03-22T16:45:13;17.10;84.70
11619;DHT22;5865;48.776;9.280;2024-03-22T16:47:40;17.00;85.20
11619;DHT22;5865;48.776;9.280;2024-03-22T16:50:08;17.30;84.30
11619;DHT22;5865;48.776;9.280;2024-03-22T16:52:37;17.30;84.60
11619;DHT22;5865;48.776;9.280;2024-03-22T16:55:05;17.40;84.10
11619;DHT22;5865;48.776;9.280;2024-03-22T16:57:33;17.20;84.70
11619;DHT22;5865;48.776;9.280;2024-03-22T17:00:00;17.00;86.90
11619;DHT22;5865;48.776;9.280;2024-03-22T17:02:26;17.00;87.60
11619;DHT22;5865;48.776;9.280;2024-03-22T17:04:53;16.60;88.20
11619;DHT22;5865;48.776;9.280;2024-03-22T17:07:19;16.60;87.30
11619;DHT22;5865;48.776;9.280;2024-03-22T17:09:48;16.40;89.30
11619;DHT22;5865;48.776;9.280;2024-03-22T17:12:14;16.00;90.10
11619;DHT22;5865;48.776;9.280;2024-03-22T17:14:41;15.90;90.30
11619;DHT22;5865;48.776;9.280;2024-03-22T17:17:07;15.70;90.10
11619;DHT22;5865;48.776;9.280;2024-03-22T17:19:34;15.60;91.10
11619;DHT22;5865;48.776;9.280;2024-03-22T17:22:00;15.50;92.40
11619;DHT22;5865;48.776;9.280;2024-03-22T17:24:30;15.40;93.20
11619;DHT22;5865;48.776;9.280;2024-03-22T17:26:58;15.30;93.30
11619;DHT22;5865;48.776;9.280;2024-03-22T17:29:26;15.20;93.90
11619;DHT22;5865;48.776;9.280;2024-03-22T17:31:52;15.10;95.40
11619;DHT22;5865;48.776;9.280;2024-03-22T17:34:19;14.90;96.40
11619;DHT22;5865;48.776;9.280;2024-03-22T17:36:45;14.80;98.90
11619;DHT22;5865;48.776;9.280;2024-03-22T17:39:12;14.70;99.90
11619;DHT22;5865;48.776;9.280;2024-03-22T17:41:38;14.70;99.90
11619;DHT22;5865;48.776;9.280;2024-03-22T17:44:07;14.60;99.90
11619;DHT22;5865;48.776;9.280;2024-03-22T17:46:34;14.40;99.90
11619;DHT22;5865;48.776;9.280;2024-03-22T17:49:01;14.40;99.90
11619;DHT22;5865;48.776;9.280;2024-03-22T17:51:28;14.20;99.90
11619;DHT22;5865;48.776;9.280;2024-03-22T17:53:55;14.10;99.90
11619;DHT22;5865;48.776;9.280;2024-03-22T17:56:22;14.10;99.90
11619;DHT22;5865;48.776;9.280;2024-03-22T17:58:48;14.00;99.90
11619;DHT22;5865;48.776;9.280;2024-03-22T18:01:17;14.00;99.90
11619;DHT22;5865;48.776;9.280;2024-03-22T18:03:43;13.90;99.90
11619;DHT22;5865;48.776;9.280;2024-03-22T18:06:10;13.70;99.90
11619;DHT22;5865;48.776;9.280;2024-03-22T18:08:36;13.60;99.90
11619;DHT22;5865;48.776;9.280;2024-03-22T18:11:03;13.60;99.90
11619;DHT22;5865;48.776;9.280;2024-03-22T18:13:29;13.30;99.90
11619;DHT22;5865;48.776;9.280;2024-03-22T18:15:58;13.10;99.90
11619;DHT22;5865;48.776;9.280;2024-03-22T18:18:25;13.00;99.90
11619;DHT22;5865;48.776;9.280;2024-03-22T18:20:52;12.90;99.90
11619;DHT22;5865;48.776;9.280;2024-03-22T18:23:18;12.60;99.90
11619;DHT22;5865;48.776;9.280;2024-03-22T18:25:45;12.40;99.90
11619;DHT22;5865;48.776;9.280;2024-03-22T18:30:40;11.80;99.90
11619;DHT22;5865;48.776;9.280;2024-03-22T18:33:06;11.80;99.90
11619;DHT22;5865;48.776;9.280;2024-03-22T18:35:35;11.50;99.90
11619;DHT22;5865;48.776;9.280;2024-03-22T18:38:01;11.30;99.90
11619;DHT22;5865;48.776;9.280;2024-03-22T18:40:28;11.10;99.90
11619;DHT22;5865;48.776;9.280;2024-03-22T18:42:53;11.10;99.90
11619;DHT22;5865;48.776;9.280;2024-03-22T18:45:20;10.60;99.90
11619;DHT22;5865;48.776;9.280;2024-03-22T18:47:47;10.50;99.90
11619;DHT22;5865;48.776;9.280;2024-03-22T18:52:42;10.40;99.90
11619;DHT22;5865;48.776;9.280;2024-03-22T18:55:12;10.30;99.90
11619;DHT22;5865;48.776;9.280;2024-03-22T18:57:38;10.10;99.90
11619;DHT22;5865;48.776;9.280;2024-03-22T19:00:06;9.90;99.90
11619;DHT22;5865;48.776;9.280;2024-03-22T19:07:25;9.70;99.90
11619;DHT22;5865;48.776;9.280;2024-03-22T19:09:54;9.60;99.90
11619;DHT22;5865;48.776;9.280;2024-03-22T19:14:49;9.30;99.90
11619;DHT22;5865;48.776;9.280;2024-03-22T19:17:15;9.20;99.90
11619;DHT22;5865;48.776;9.280;2024-03-22T19:19:42;9.30;99.90
11619;DHT22;5865;48.776;9.280;2024-03-22T19:24:36;9.20;99.90
11619;DHT22;5865;48.776;9.280;2024-03-22T19:27:04;9.00;99.90
11619;DHT22;5865;48.776;9.280;2024-03-22T19:29:31;9.00;99.90
